createdAt,value
2018-04-27T00:01:00.306Z,988.87
2018-04-27T00:02:08.500Z,988.78
2018-04-27T00:03:14.462Z,988.79
2018-04-27T00:04:21.583Z,988.89
2018-04-27T00:05:28.565Z,988.88
2018-04-27T00:06:35.412Z,988.76
2018-04-27T00:07:42.484Z,988.79
2018-04-27T00:08:49.263Z,988.77
2018-04-27T00:09:56.038Z,988.78
2018-04-27T00:11:02.903Z,988.71
2018-04-27T00:12:10.024Z,988.68
2018-04-27T00:13:16.718Z,988.68
2018-04-27T00:14:23.351Z,988.67
2018-04-27T00:15:30.119Z,988.67
2018-04-27T00:16:37.264Z,988.70
2018-04-27T00:17:43.999Z,988.66
2018-04-27T00:18:50.973Z,988.70
2018-04-27T00:19:58.046Z,988.65
2018-04-27T00:21:05.141Z,988.61
2018-04-27T00:22:12.212Z,988.65
2018-04-27T00:23:19.219Z,988.60
2018-04-27T00:24:26.201Z,988.61
2018-04-27T00:25:33.589Z,988.56
2018-04-27T00:26:40.280Z,988.61
2018-04-27T00:27:47.236Z,988.60
2018-04-27T00:28:54.230Z,988.52
2018-04-27T00:30:01.328Z,988.55
2018-04-27T00:31:08.382Z,988.57
2018-04-27T00:32:15.317Z,988.60
2018-04-27T00:33:22.432Z,988.55
2018-04-27T00:34:29.166Z,988.53
2018-04-27T00:35:36.240Z,988.49
2018-04-27T00:36:42.559Z,988.46
2018-04-27T00:37:49.759Z,988.46
2018-04-27T00:38:56.789Z,988.49
2018-04-27T00:40:03.826Z,988.55
2018-04-27T00:41:10.713Z,988.52
2018-04-27T00:42:17.678Z,988.46
2018-04-27T00:43:24.626Z,988.41
2018-04-27T00:44:31.666Z,988.49
2018-04-27T00:45:38.939Z,988.50
2018-04-27T00:46:45.400Z,988.53
2018-04-27T00:47:52.412Z,988.48
2018-04-27T00:48:59.344Z,988.42
2018-04-27T00:50:06.346Z,988.38
2018-04-27T00:51:13.436Z,988.31
2018-04-27T00:52:22.744Z,988.30
2018-04-27T00:53:26.882Z,988.33
2018-04-27T00:54:33.930Z,988.33
2018-04-27T00:55:40.868Z,988.30
2018-04-27T00:56:47.848Z,988.27
2018-04-27T00:57:54.767Z,988.30
2018-04-27T00:59:01.699Z,988.31
2018-04-27T01:00:08.799Z,988.32
2018-04-27T01:01:15.552Z,988.27
2018-04-27T01:02:22.646Z,988.20
2018-04-27T01:03:30.612Z,988.28
2018-04-27T01:04:36.222Z,988.22
2018-04-27T01:05:43.208Z,988.19
2018-04-27T01:06:50.376Z,988.29
2018-04-27T01:07:56.841Z,988.23
2018-04-27T01:09:03.932Z,988.23
2018-04-27T01:10:11.015Z,988.19
2018-04-27T01:11:17.772Z,988.24
2018-04-27T01:12:24.510Z,988.18
2018-04-27T01:13:31.243Z,988.15
2018-04-27T01:14:38.045Z,988.21
2018-04-27T01:15:44.827Z,988.16
2018-04-27T01:16:51.862Z,988.26
2018-04-27T01:17:58.595Z,988.22
2018-04-27T01:19:05.373Z,988.17
2018-04-27T01:20:12.133Z,988.23
2018-04-27T01:21:18.948Z,988.16
2018-04-27T01:22:26.548Z,988.24
2018-04-27T01:23:32.819Z,988.19
2018-04-27T01:24:39.629Z,988.14
2018-04-27T01:25:46.410Z,988.10
2018-04-27T01:26:53.410Z,988.15
2018-04-27T01:28:00.136Z,988.22
2018-04-27T01:29:06.975Z,988.22
2018-04-27T01:30:13.745Z,988.18
2018-04-27T01:31:20.497Z,988.20
2018-04-27T01:32:27.307Z,988.14
2018-04-27T01:33:34.074Z,988.15
2018-04-27T01:34:40.826Z,988.11
2018-04-27T01:35:47.637Z,988.15
2018-04-27T01:36:54.379Z,988.18
2018-04-27T01:38:01.145Z,988.13
2018-04-27T01:39:07.972Z,988.14
2018-04-27T01:40:14.923Z,988.14
2018-04-27T01:41:22.110Z,988.15
2018-04-27T01:42:29.042Z,988.10
2018-04-27T01:43:36.023Z,988.14
2018-04-27T01:44:42.992Z,988.16
2018-04-27T01:45:50.096Z,988.09
2018-04-27T01:46:57.088Z,988.05
2018-04-27T01:48:04.001Z,988.12
2018-04-27T01:49:10.932Z,988.07
2018-04-27T01:50:17.886Z,988.11
2018-04-27T01:51:24.847Z,988.03
2018-04-27T01:52:31.808Z,988.10
2018-04-27T01:53:38.766Z,988.03
2018-04-27T01:54:45.799Z,988.00
2018-04-27T01:55:52.675Z,987.99
2018-04-27T01:56:59.582Z,987.98
2018-04-27T01:58:06.363Z,987.95
2018-04-27T01:59:13.360Z,987.98
2018-04-27T02:01:26.792Z,988.00
2018-04-27T02:02:33.888Z,988.06
2018-04-27T02:03:40.951Z,988.05
2018-04-27T02:04:51.364Z,988.01
2018-04-27T02:05:54.608Z,988.02
2018-04-27T02:07:01.548Z,988.02
2018-04-27T02:08:08.625Z,987.93
2018-04-27T02:09:15.713Z,987.83
2018-04-27T02:10:22.715Z,987.92
2018-04-27T02:11:29.757Z,987.88
2018-04-27T02:12:36.779Z,987.84
2018-04-27T02:13:43.880Z,987.81
2018-04-27T02:14:50.874Z,987.78
2018-04-27T02:15:57.956Z,987.79
2018-04-27T02:17:05.060Z,987.81
2018-04-27T02:18:11.900Z,987.82
2018-04-27T02:19:18.896Z,987.69
2018-04-27T02:20:26.792Z,987.79
2018-04-27T02:21:33.032Z,987.78
2018-04-27T02:22:39.660Z,987.82
2018-04-27T02:23:46.475Z,987.73
2018-04-27T02:24:53.276Z,987.74
2018-04-27T02:26:00.380Z,987.75
2018-04-27T02:27:07.224Z,987.75
2018-04-27T02:28:14.257Z,987.71
2018-04-27T02:29:21.269Z,987.69
2018-04-27T02:30:28.236Z,987.72
2018-04-27T02:31:35.056Z,987.72
2018-04-27T02:32:43.841Z,987.74
2018-04-27T02:33:48.979Z,987.73
2018-04-27T02:34:55.940Z,987.73
2018-04-27T02:36:02.744Z,987.68
2018-04-27T02:37:09.453Z,987.64
2018-04-27T02:38:16.442Z,987.71
2018-04-27T02:39:23.552Z,987.67
2018-04-27T02:41:43.933Z,987.58
2018-04-27T02:42:44.636Z,987.64
2018-04-27T02:43:51.533Z,987.61
2018-04-27T02:44:58.652Z,987.57
2018-04-27T02:46:05.296Z,987.60
2018-04-27T02:47:12.288Z,987.50
2018-04-27T02:48:19.268Z,987.50
2018-04-27T02:49:26.247Z,987.52
2018-04-27T02:51:40.309Z,987.51
2018-04-27T02:52:47.107Z,987.47
2018-04-27T02:53:54.190Z,987.50
2018-04-27T02:55:01.347Z,987.44
2018-04-27T02:56:08.404Z,987.46
2018-04-27T02:57:15.330Z,987.39
2018-04-27T02:58:22.134Z,987.35
2018-04-27T02:59:29.160Z,987.40
2018-04-27T03:00:36.052Z,987.38
2018-04-27T03:01:42.647Z,987.36
2018-04-27T03:02:49.838Z,987.36
2018-04-27T03:03:56.751Z,987.34
2018-04-27T03:05:03.633Z,987.24
2018-04-27T03:06:10.708Z,987.29
2018-04-27T03:07:17.484Z,987.28
2018-04-27T03:08:30.459Z,987.33
2018-04-27T03:09:31.371Z,987.27
2018-04-27T03:10:38.217Z,987.31
2018-04-27T03:11:45.283Z,987.28
2018-04-27T03:12:52.078Z,987.27
2018-04-27T03:13:58.860Z,987.25
2018-04-27T03:15:05.948Z,987.24
2018-04-27T03:16:12.776Z,987.09
2018-04-27T03:17:19.485Z,987.04
2018-04-27T03:18:26.500Z,987.02
2018-04-27T03:19:33.438Z,987.13
2018-04-27T03:20:40.735Z,987.00
2018-04-27T03:21:47.704Z,986.99
2018-04-27T03:22:54.835Z,987.00
2018-04-27T03:24:01.581Z,986.96
2018-04-27T03:25:08.464Z,986.98
2018-04-27T03:26:15.438Z,986.99
2018-04-27T03:27:22.572Z,987.00
2018-04-27T03:28:29.424Z,987.02
2018-04-27T03:29:36.470Z,986.99
2018-04-27T03:30:43.180Z,987.03
2018-04-27T03:31:50.152Z,986.93
2018-04-27T03:32:57.229Z,986.90
2018-04-27T03:34:04.348Z,986.90
2018-04-27T03:35:11.422Z,986.85
2018-04-27T03:36:18.197Z,986.85
2018-04-27T03:37:25.280Z,986.84
2018-04-27T03:38:32.448Z,986.84
2018-04-27T03:39:39.556Z,986.84
2018-04-27T03:40:46.573Z,986.80
2018-04-27T03:41:55.386Z,986.79
2018-04-27T03:43:00.096Z,986.78
2018-04-27T03:44:06.749Z,986.71
2018-04-27T03:45:13.500Z,986.72
2018-04-27T03:46:20.308Z,986.70
2018-04-27T03:47:27.083Z,986.70
2018-04-27T03:48:34.219Z,986.72
2018-04-27T03:49:41.172Z,986.67
2018-04-27T03:50:48.139Z,986.60
2018-04-27T03:51:55.318Z,986.68
2018-04-27T03:54:08.941Z,986.71
2018-04-27T03:55:15.926Z,986.57
2018-04-27T03:56:23.134Z,986.60
2018-04-27T03:57:29.918Z,986.56
2018-04-27T03:58:37.104Z,986.55
2018-04-27T03:59:44.166Z,986.56
2018-04-27T04:01:58.020Z,986.52
2018-04-27T04:03:08.735Z,986.51
2018-04-27T04:04:15.554Z,986.49
2018-04-27T04:05:28.404Z,986.50
2018-04-27T04:06:35.178Z,986.56
2018-04-27T04:07:42.268Z,986.56
2018-04-27T04:08:49.463Z,986.52
2018-04-27T04:09:56.567Z,986.51
2018-04-27T04:11:03.717Z,986.55
2018-04-27T04:12:10.552Z,986.52
2018-04-27T04:13:17.450Z,986.51
2018-04-27T04:14:24.277Z,986.50
2018-04-27T04:15:31.122Z,986.50
2018-04-27T04:16:38.011Z,986.52
2018-04-27T04:17:45.606Z,986.37
2018-04-27T04:18:52.067Z,986.32
2018-04-27T04:19:58.988Z,986.33
2018-04-27T04:21:05.851Z,986.31
2018-04-27T04:22:12.689Z,986.22
2018-04-27T04:23:19.597Z,986.27
2018-04-27T04:24:26.493Z,986.29
2018-04-27T04:25:33.404Z,986.30
2018-04-27T04:26:40.264Z,986.20
2018-04-27T04:27:47.119Z,986.24
2018-04-27T04:28:53.920Z,986.20
2018-04-27T04:30:00.729Z,986.19
2018-04-27T04:31:07.883Z,986.24
2018-04-27T04:32:14.806Z,986.17
2018-04-27T04:33:21.698Z,986.20
2018-04-27T04:34:28.540Z,986.20
2018-04-27T04:35:35.472Z,986.23
2018-04-27T04:36:42.271Z,986.22
2018-04-27T04:37:49.162Z,986.17
2018-04-27T04:38:55.971Z,986.16
2018-04-27T04:40:02.773Z,986.21
2018-04-27T04:41:09.567Z,986.17
2018-04-27T04:42:16.424Z,986.18
2018-04-27T04:43:23.247Z,986.21
2018-04-27T04:44:30.047Z,986.23
2018-04-27T04:45:36.844Z,986.20
2018-04-27T04:46:43.594Z,986.18
2018-04-27T04:47:50.348Z,986.21
2018-04-27T04:48:57.102Z,986.19
2018-04-27T04:50:03.952Z,986.17
2018-04-27T04:51:10.746Z,986.13
2018-04-27T04:52:17.502Z,986.28
2018-04-27T04:53:24.406Z,986.24
2018-04-27T04:54:31.152Z,986.31
2018-04-27T04:55:37.873Z,986.21
2018-04-27T04:56:44.615Z,986.24
2018-04-27T04:57:51.329Z,986.21
2018-04-27T04:58:58.194Z,986.22
2018-04-27T05:00:04.978Z,986.23
2018-04-27T05:01:11.695Z,986.30
2018-04-27T05:02:18.470Z,986.25
2018-04-27T05:03:25.294Z,986.26
2018-04-27T05:04:32.111Z,986.27
2018-04-27T05:05:38.863Z,986.26
2018-04-27T05:06:45.763Z,986.15
2018-04-27T05:07:52.498Z,986.23
2018-04-27T05:08:59.270Z,986.24
2018-04-27T05:10:06.039Z,986.18
2018-04-27T05:11:12.860Z,986.15
2018-04-27T05:12:19.730Z,986.17
2018-04-27T05:13:26.458Z,986.12
2018-04-27T05:14:33.292Z,986.17
2018-04-27T05:15:40.014Z,986.15
2018-04-27T05:16:46.737Z,986.20
2018-04-27T05:17:53.480Z,986.20
2018-04-27T05:19:00.392Z,986.24
2018-04-27T05:20:07.360Z,986.12
2018-04-27T05:21:14.138Z,986.15
2018-04-27T05:22:20.882Z,986.14
2018-04-27T05:23:27.625Z,986.21
2018-04-27T05:24:34.382Z,986.16
2018-04-27T05:25:41.143Z,986.16
2018-04-27T05:26:47.884Z,986.13
2018-04-27T05:27:54.606Z,986.07
2018-04-27T05:29:01.365Z,986.14
2018-04-27T05:30:08.175Z,986.10
2018-04-27T05:31:15.061Z,986.09
2018-04-27T05:32:21.919Z,986.10
2018-04-27T05:33:28.739Z,986.11
2018-04-27T05:34:35.502Z,986.03
2018-04-27T05:35:42.389Z,986.01
2018-04-27T05:36:49.567Z,986.04
2018-04-27T05:37:56.511Z,986.05
2018-04-27T05:39:03.768Z,986.00
2018-04-27T05:40:12.092Z,985.99
2018-04-27T05:41:18.592Z,985.92
2018-04-27T05:42:24.176Z,985.93
2018-04-27T05:43:31.232Z,985.88
2018-04-27T05:44:37.919Z,985.86
2018-04-27T05:45:46.786Z,985.92
2018-04-27T05:46:51.814Z,985.85
2018-04-27T05:47:59.897Z,985.85
2018-04-27T05:49:05.935Z,985.83
2018-04-27T05:50:12.751Z,985.77
2018-04-27T05:51:19.528Z,985.71
2018-04-27T05:52:27.569Z,985.78
2018-04-27T05:53:33.401Z,985.77
2018-04-27T05:54:40.222Z,985.73
2018-04-27T05:55:47.388Z,985.75
2018-04-27T05:56:54.120Z,985.77
2018-04-27T05:58:01.190Z,985.81
2018-04-27T05:59:08.204Z,985.75
2018-04-27T06:00:15.134Z,985.75
2018-04-27T06:01:22.175Z,985.77
2018-04-27T06:02:29.138Z,985.73
2018-04-27T06:03:36.076Z,985.73
2018-04-27T06:04:43.127Z,985.70
2018-04-27T06:05:50.082Z,985.72
2018-04-27T06:06:57.086Z,985.71
2018-04-27T06:08:04.110Z,985.70
2018-04-27T06:09:11.014Z,985.69
2018-04-27T06:10:17.887Z,985.68
2018-04-27T06:11:24.815Z,985.61
2018-04-27T06:12:31.788Z,985.67
2018-04-27T06:13:38.696Z,985.64
2018-04-27T06:14:45.730Z,985.64
2018-04-27T06:15:52.610Z,985.64
2018-04-27T06:16:59.514Z,985.65
2018-04-27T06:18:06.366Z,985.64
2018-04-27T06:19:13.260Z,985.56
2018-04-27T06:20:20.081Z,985.60
2018-04-27T06:21:26.912Z,985.57
2018-04-27T06:22:33.904Z,985.58
2018-04-27T06:23:40.858Z,985.56
2018-04-27T06:24:47.653Z,985.55
2018-04-27T06:25:54.628Z,985.52
2018-04-27T06:27:01.561Z,985.50
2018-04-27T06:28:08.458Z,985.53
2018-04-27T06:29:15.364Z,985.53
2018-04-27T06:30:22.191Z,985.52
2018-04-27T06:31:29.084Z,985.49
2018-04-27T06:32:36.005Z,985.47
2018-04-27T06:33:42.903Z,985.44
2018-04-27T06:34:49.840Z,985.43
2018-04-27T06:35:56.892Z,985.42
2018-04-27T06:37:03.724Z,985.40
2018-04-27T06:38:10.567Z,985.45
2018-04-27T06:39:17.420Z,985.33
2018-04-27T06:40:24.186Z,985.39
2018-04-27T06:41:31.111Z,985.34
2018-04-27T06:42:37.916Z,985.28
2018-04-27T06:43:44.751Z,985.25
2018-04-27T06:44:51.547Z,985.18
2018-04-27T06:45:58.375Z,985.20
2018-04-27T06:47:05.305Z,985.16
2018-04-27T06:48:12.118Z,985.12
2018-04-27T06:49:18.933Z,985.17
2018-04-27T06:50:25.758Z,985.18
2018-04-27T06:51:32.652Z,985.11
2018-04-27T06:52:39.417Z,985.12
2018-04-27T06:53:46.183Z,985.12
2018-04-27T06:54:52.975Z,985.09
2018-04-27T06:55:59.714Z,985.07
2018-04-27T06:57:06.603Z,985.12
2018-04-27T06:58:13.491Z,985.15
2018-04-27T06:59:20.211Z,985.09
2018-04-27T07:00:27.095Z,985.11
2018-04-27T07:01:33.938Z,985.06
2018-04-27T07:02:40.822Z,985.08
2018-04-27T07:03:47.703Z,985.04
2018-04-27T07:04:54.582Z,985.01
2018-04-27T07:06:01.478Z,985.02
2018-04-27T07:07:08.363Z,984.96
2018-04-27T07:08:15.202Z,984.91
2018-04-27T07:09:22.139Z,984.97
2018-04-27T07:10:28.972Z,984.92
2018-04-27T07:11:35.747Z,985.01
2018-04-27T07:12:42.545Z,984.91
2018-04-27T07:13:49.366Z,984.94
2018-04-27T07:14:56.311Z,984.90
2018-04-27T07:16:03.090Z,984.87
2018-04-27T07:17:09.960Z,984.84
2018-04-27T07:18:16.722Z,984.87
2018-04-27T07:19:23.479Z,984.78
2018-04-27T07:20:30.239Z,984.74
2018-04-27T07:21:37.230Z,984.79
2018-04-27T07:22:43.998Z,984.80
2018-04-27T07:23:50.771Z,984.75
2018-04-27T07:24:57.669Z,984.83
2018-04-27T07:26:04.421Z,984.75
2018-04-27T07:27:11.159Z,984.77
2018-04-27T07:28:17.963Z,984.78
2018-04-27T07:29:24.715Z,984.75
2018-04-27T07:30:31.514Z,984.73
2018-04-27T07:31:38.271Z,984.75
2018-04-27T07:32:45.060Z,984.75
2018-04-27T07:33:51.911Z,984.79
2018-04-27T07:34:58.633Z,984.73
2018-04-27T07:36:05.436Z,984.74
2018-04-27T07:37:12.227Z,984.79
2018-04-27T07:38:19.020Z,984.76
2018-04-27T07:39:25.863Z,984.75
2018-04-27T07:40:32.663Z,984.77
2018-04-27T07:41:39.503Z,984.72
2018-04-27T07:42:46.576Z,984.65
2018-04-27T07:43:53.376Z,984.68
2018-04-27T07:45:00.310Z,984.71
2018-04-27T07:46:07.171Z,984.73
2018-04-27T07:47:14.000Z,984.70
2018-04-27T07:48:20.758Z,984.62
2018-04-27T07:49:27.587Z,984.59
2018-04-27T07:50:34.426Z,984.58
2018-04-27T07:51:41.355Z,984.58
2018-04-27T07:52:48.119Z,984.55
2018-04-27T07:53:54.894Z,984.54
2018-04-27T07:55:01.763Z,984.48
2018-04-27T07:56:08.603Z,984.46
2018-04-27T07:57:15.529Z,984.40
2018-04-27T07:58:22.427Z,984.43
2018-04-27T07:59:29.338Z,984.50
2018-04-27T08:00:36.222Z,984.40
2018-04-27T08:01:43.102Z,984.41
2018-04-27T08:02:49.980Z,984.44
2018-04-27T08:03:56.925Z,984.45
2018-04-27T08:05:03.805Z,984.44
2018-04-27T08:06:10.680Z,984.46
2018-04-27T08:07:17.532Z,984.35
2018-04-27T08:08:24.267Z,984.35
2018-04-27T08:09:31.105Z,984.33
2018-04-27T08:10:37.868Z,984.38
2018-04-27T08:11:44.707Z,984.43
2018-04-27T08:12:51.552Z,984.37
2018-04-27T08:13:58.387Z,984.36
2018-04-27T08:15:05.327Z,984.29
2018-04-27T08:16:12.149Z,984.32
2018-04-27T08:17:18.932Z,984.34
2018-04-27T08:18:25.847Z,984.20
2018-04-27T08:19:32.702Z,984.33
2018-04-27T08:20:39.535Z,984.30
2018-04-27T08:21:46.370Z,984.26
2018-04-27T08:22:53.298Z,984.30
2018-04-27T08:24:00.191Z,984.23
2018-04-27T08:25:07.966Z,984.21
2018-04-27T08:26:13.797Z,984.20
2018-04-27T08:27:20.962Z,984.15
2018-04-27T08:28:27.845Z,984.20
2018-04-27T08:29:34.739Z,984.24
2018-04-27T08:30:41.785Z,984.12
2018-04-27T08:31:48.566Z,984.06
2018-04-27T08:32:55.439Z,984.14
2018-04-27T08:34:02.450Z,984.06
2018-04-27T08:35:09.295Z,984.06
2018-04-27T08:36:16.393Z,984.04
2018-04-27T08:37:23.088Z,984.09
2018-04-27T08:38:29.780Z,984.05
2018-04-27T08:39:36.542Z,984.11
2018-04-27T08:40:43.286Z,984.00
2018-04-27T08:41:50.003Z,984.07
2018-04-27T08:42:56.772Z,984.04
2018-04-27T08:44:03.510Z,983.98
2018-04-27T08:45:10.242Z,984.01
2018-04-27T08:46:16.972Z,983.98
2018-04-27T08:47:23.663Z,983.92
2018-04-27T08:48:30.428Z,983.90
2018-04-27T08:49:37.243Z,983.93
2018-04-27T08:50:44.055Z,983.76
2018-04-27T08:51:50.827Z,983.79
2018-04-27T08:52:57.685Z,983.75
2018-04-27T08:54:04.449Z,983.75
2018-04-27T08:55:11.227Z,983.80
2018-04-27T08:56:18.083Z,983.78
2018-04-27T08:57:25.003Z,983.88
2018-04-27T08:58:31.889Z,983.85
2018-04-27T08:59:38.778Z,983.81
2018-04-27T09:00:45.581Z,983.82
2018-04-27T09:01:52.410Z,983.86
2018-04-27T09:02:59.194Z,983.84
2018-04-27T09:04:05.895Z,983.83
2018-04-27T09:05:12.619Z,983.83
2018-04-27T09:07:26.479Z,983.79
2018-04-27T09:08:33.211Z,983.80
2018-04-27T09:09:39.999Z,983.80
2018-04-27T09:10:47.327Z,983.75
2018-04-27T09:11:53.627Z,983.71
2018-04-27T09:13:00.378Z,983.69
2018-04-27T09:14:07.197Z,983.71
2018-04-27T09:15:13.923Z,983.64
2018-04-27T09:16:20.856Z,983.65
2018-04-27T09:17:27.559Z,983.65
2018-04-27T09:18:34.641Z,983.60
2018-04-27T09:19:42.428Z,983.58
2018-04-27T09:20:48.286Z,983.56
2018-04-27T09:21:55.070Z,983.45
2018-04-27T09:23:01.796Z,983.49
2018-04-27T09:24:08.556Z,983.41
2018-04-27T09:25:15.351Z,983.38
2018-04-27T09:26:22.104Z,983.35
2018-04-27T09:27:28.976Z,983.44
2018-04-27T09:28:35.722Z,983.41
2018-04-27T09:29:42.863Z,983.43
2018-04-27T09:30:49.166Z,983.37
2018-04-27T09:31:56.550Z,983.34
2018-04-27T09:33:02.791Z,983.26
2018-04-27T09:34:09.533Z,983.27
2018-04-27T09:35:16.355Z,983.25
2018-04-27T09:36:23.170Z,983.19
2018-04-27T09:37:29.910Z,983.22
2018-04-27T09:38:36.654Z,983.14
2018-04-27T09:39:43.359Z,983.14
2018-04-27T09:40:50.076Z,983.12
2018-04-27T09:41:56.932Z,983.11
2018-04-27T09:43:03.758Z,982.99
2018-04-27T09:44:10.658Z,982.96
2018-04-27T09:45:17.418Z,982.96
2018-04-27T09:46:24.228Z,982.96
2018-04-27T09:47:30.951Z,982.91
2018-04-27T09:48:37.731Z,982.98
2018-04-27T09:49:44.510Z,982.95
2018-04-27T09:50:51.415Z,983.00
2018-04-27T09:51:58.287Z,983.08
2018-04-27T09:53:05.218Z,983.02
2018-04-27T09:54:11.993Z,982.99
2018-04-27T09:55:18.788Z,983.05
2018-04-27T09:56:25.522Z,983.00
2018-04-27T09:57:32.300Z,982.90
2018-04-27T09:58:39.073Z,982.85
2018-04-27T09:59:45.867Z,982.89
2018-04-27T10:00:52.873Z,982.85
2018-04-27T10:01:59.637Z,982.83
2018-04-27T10:03:06.390Z,982.79
2018-04-27T10:04:13.491Z,982.72
2018-04-27T10:05:19.831Z,982.79
2018-04-27T10:06:26.631Z,982.85
2018-04-27T10:07:33.437Z,982.82
2018-04-27T10:08:40.275Z,982.74
2018-04-27T10:09:47.101Z,982.72
2018-04-27T10:10:53.978Z,982.66
2018-04-27T10:12:00.730Z,982.65
2018-04-27T10:13:07.526Z,982.51
2018-04-27T10:14:14.327Z,982.51
2018-04-27T10:15:21.110Z,982.48
2018-04-27T10:16:27.863Z,982.37
2018-04-27T10:17:34.712Z,982.38
2018-04-27T10:18:41.814Z,982.41
2018-04-27T10:19:48.621Z,982.39
2018-04-27T10:20:55.385Z,982.29
2018-04-27T10:22:02.265Z,982.33
2018-04-27T10:23:09.223Z,982.40
2018-04-27T10:24:16.083Z,982.31
2018-04-27T10:25:22.826Z,982.35
2018-04-27T10:26:30.023Z,982.31
2018-04-27T10:27:36.802Z,982.32
2018-04-27T10:28:43.666Z,982.39
2018-04-27T10:29:50.560Z,982.43
2018-04-27T10:30:57.379Z,982.37
2018-04-27T10:32:04.128Z,982.29
2018-04-27T10:33:10.914Z,982.29
2018-04-27T10:34:17.678Z,982.26
2018-04-27T10:35:24.444Z,982.18
2018-04-27T10:36:31.231Z,982.22
2018-04-27T10:37:37.988Z,982.10
2018-04-27T10:38:44.713Z,982.22
2018-04-27T10:39:51.490Z,982.21
2018-04-27T10:40:58.318Z,982.14
2018-04-27T10:42:05.078Z,982.09
2018-04-27T10:43:11.834Z,982.16
2018-04-27T10:44:18.554Z,982.12
2018-04-27T10:45:25.352Z,982.08
2018-04-27T10:46:32.104Z,982.04
2018-04-27T10:47:38.953Z,982.08
2018-04-27T10:48:46.007Z,982.03
2018-04-27T10:49:52.846Z,982.05
2018-04-27T10:50:59.729Z,982.10
2018-04-27T10:52:06.562Z,982.16
2018-04-27T10:53:13.354Z,982.14
2018-04-27T10:54:20.155Z,982.08
2018-04-27T10:55:26.995Z,982.08
2018-04-27T10:56:33.747Z,982.07
2018-04-27T10:57:40.594Z,982.01
2018-04-27T10:58:47.369Z,982.02
2018-04-27T10:59:54.247Z,981.99
2018-04-27T11:01:01.094Z,981.93
2018-04-27T11:02:07.992Z,981.95
2018-04-27T11:03:14.925Z,981.95
2018-04-27T11:04:21.683Z,981.94
2018-04-27T11:05:28.532Z,981.83
2018-04-27T11:06:35.672Z,981.72
2018-04-27T11:07:42.148Z,981.70
2018-04-27T11:08:48.955Z,981.61
2018-04-27T11:09:55.759Z,981.55
2018-04-27T11:11:02.644Z,981.43
2018-04-27T11:12:09.581Z,981.57
2018-04-27T11:13:16.451Z,981.50
2018-04-27T11:14:23.351Z,981.60
2018-04-27T11:15:30.219Z,981.56
2018-04-27T11:16:37.003Z,981.56
2018-04-27T11:17:43.820Z,981.57
2018-04-27T11:18:50.670Z,981.50
2018-04-27T11:19:57.607Z,981.44
2018-04-27T11:21:04.454Z,981.45
2018-04-27T11:22:11.270Z,981.35
2018-04-27T11:23:18.062Z,981.40
2018-04-27T11:24:24.916Z,981.43
2018-04-27T11:25:31.832Z,981.29
2018-04-27T11:26:38.835Z,981.25
2018-04-27T11:27:45.614Z,981.26
2018-04-27T11:28:52.350Z,981.08
2018-04-27T11:29:59.055Z,981.11
2018-04-27T11:31:05.760Z,981.07
2018-04-27T11:32:12.498Z,981.06
2018-04-27T11:33:19.201Z,981.00
2018-04-27T11:34:25.991Z,980.92
2018-04-27T11:35:32.747Z,980.99
2018-04-27T11:36:39.647Z,980.99
2018-04-27T11:37:46.438Z,980.97
2018-04-27T11:38:53.235Z,980.98
2018-04-27T11:40:00.012Z,980.95
2018-04-27T11:41:06.856Z,980.98
2018-04-27T11:42:13.623Z,980.88
2018-04-27T11:43:20.347Z,980.96
2018-04-27T11:44:27.125Z,980.85
2018-04-27T11:45:33.912Z,980.82
2018-04-27T11:46:40.723Z,980.79
2018-04-27T11:47:47.752Z,980.78
2018-04-27T11:48:54.619Z,980.72
2018-04-27T11:50:01.334Z,980.77
2018-04-27T11:51:08.146Z,980.73
2018-04-27T11:52:15.041Z,980.77
2018-04-27T11:53:21.994Z,980.76
2018-04-27T11:54:28.799Z,980.81
2018-04-27T11:55:35.714Z,980.82
2018-04-27T11:56:43.428Z,980.82
2018-04-27T11:57:49.735Z,980.82
2018-04-27T11:58:56.635Z,980.78
2018-04-27T12:00:03.453Z,980.73
2018-04-27T12:01:10.441Z,980.76
2018-04-27T12:02:17.364Z,980.69
2018-04-27T12:03:24.246Z,980.70
2018-04-27T12:04:31.243Z,980.64
2018-04-27T12:05:38.209Z,980.54
2018-04-27T12:06:45.156Z,980.57
2018-04-27T12:07:51.949Z,980.54
2018-04-27T12:08:58.775Z,980.53
2018-04-27T12:10:05.579Z,980.40
2018-04-27T12:11:12.495Z,980.41
2018-04-27T12:12:19.355Z,980.45
2018-04-27T12:13:26.243Z,980.37
2018-04-27T12:14:33.168Z,980.33
2018-04-27T12:15:39.918Z,980.33
2018-04-27T12:16:46.758Z,980.30
2018-04-27T12:17:53.609Z,980.33
2018-04-27T12:19:00.763Z,980.33
2018-04-27T12:20:07.593Z,980.27
2018-04-27T12:21:14.314Z,980.24
2018-04-27T12:22:21.026Z,980.25
2018-04-27T12:23:27.838Z,980.22
2018-04-27T12:24:34.799Z,980.18
2018-04-27T12:25:41.295Z,980.22
2018-04-27T12:26:48.124Z,980.14
2018-04-27T12:27:54.886Z,980.08
2018-04-27T12:29:01.606Z,980.12
2018-04-27T12:30:08.319Z,980.15
2018-04-27T12:31:15.164Z,980.09
2018-04-27T12:32:21.962Z,980.07
2018-04-27T12:33:28.659Z,980.18
2018-04-27T12:34:35.429Z,980.19
2018-04-27T12:35:42.166Z,980.14
2018-04-27T12:36:48.866Z,980.09
2018-04-27T12:37:55.683Z,980.09
2018-04-27T12:39:02.471Z,980.07
2018-04-27T12:40:09.327Z,980.10
2018-04-27T12:41:16.188Z,980.16
2018-04-27T12:42:22.918Z,980.15
2018-04-27T12:43:29.888Z,980.09
2018-04-27T12:44:36.742Z,980.14
2018-04-27T12:45:43.791Z,980.02
2018-04-27T12:46:50.615Z,979.95
2018-04-27T12:47:57.459Z,979.89
2018-04-27T12:49:04.276Z,980.06
2018-04-27T12:50:11.078Z,979.99
2018-04-27T12:51:17.912Z,979.99
2018-04-27T12:52:24.761Z,979.91
2018-04-27T12:53:31.670Z,980.00
2018-04-27T12:54:38.576Z,979.91
2018-04-27T12:55:45.482Z,979.82
2018-04-27T12:56:52.334Z,979.77
2018-04-27T12:57:59.241Z,979.80
2018-04-27T12:59:06.052Z,979.73
2018-04-27T13:00:12.830Z,979.70
2018-04-27T13:01:19.662Z,979.71
2018-04-27T13:02:26.442Z,979.74
2018-04-27T13:03:33.191Z,979.77
2018-04-27T13:04:39.922Z,979.75
2018-04-27T13:05:46.748Z,979.75
2018-04-27T13:06:53.589Z,979.77
2018-04-27T13:08:00.617Z,979.74
2018-04-27T13:09:07.334Z,979.75
2018-04-27T13:10:14.174Z,979.77
2018-04-27T13:11:20.994Z,979.77
2018-04-27T13:12:27.822Z,979.83
2018-04-27T13:13:34.779Z,979.76
2018-04-27T13:14:41.641Z,979.78
2018-04-27T13:15:48.613Z,979.75
2018-04-27T13:16:55.487Z,979.81
2018-04-27T13:18:02.308Z,979.74
2018-04-27T13:19:09.273Z,979.81
2018-04-27T13:20:16.088Z,979.80
2018-04-27T13:21:22.878Z,979.76
2018-04-27T13:22:29.688Z,979.66
2018-04-27T13:23:36.512Z,979.74
2018-04-27T13:24:43.295Z,979.70
2018-04-27T13:25:50.347Z,979.67
2018-04-27T13:26:57.147Z,979.60
2018-04-27T13:28:03.900Z,979.65
2018-04-27T13:29:10.774Z,979.60
2018-04-27T13:30:18.535Z,979.60
2018-04-27T13:31:24.513Z,979.58
2018-04-27T13:32:31.339Z,979.57
2018-04-27T13:33:38.152Z,979.57
2018-04-27T13:34:44.951Z,979.58
2018-04-27T13:35:51.719Z,979.48
2018-04-27T13:36:58.486Z,979.39
2018-04-27T13:38:05.588Z,979.40
2018-04-27T13:39:12.347Z,979.48
2018-04-27T13:40:19.163Z,979.47
2018-04-27T13:41:25.944Z,979.40
2018-04-27T13:42:32.841Z,979.37
2018-04-27T13:43:39.743Z,979.36
2018-04-27T13:44:46.541Z,979.34
2018-04-27T13:45:53.373Z,979.29
2018-04-27T13:47:00.157Z,979.29
2018-04-27T13:48:07.855Z,979.27
2018-04-27T13:49:14.048Z,979.27
2018-04-27T13:50:20.457Z,979.28
2018-04-27T13:51:27.335Z,979.26
2018-04-27T13:52:34.299Z,979.21
2018-04-27T13:53:41.146Z,979.26
2018-04-27T13:54:47.968Z,979.23
2018-04-27T13:55:54.800Z,979.23
2018-04-27T13:57:01.640Z,979.30
2018-04-27T13:58:08.500Z,979.29
2018-04-27T13:59:15.273Z,979.24
2018-04-27T14:00:22.200Z,979.32
2018-04-27T14:01:29.078Z,979.29